sensor_id;sensor_type;location;lat;lon;timestamp;temperature;humidity
24668;DHT22;12793;48.014;0.232;2022-09-09T00:03:45;17.90;62.70
24668;DHT22;12793;48.014;0.232;2022-09-09T00:11:39;17.90;62.80
24668;DHT22;12793;48.014;0.232;2022-09-09T00:14:13;17.90;63.10
24668;DHT22;12793;48.014;0.232;2022-09-09T00:16:41;17.90;63.30
24668;DHT22;12793;48.014;0.232;2022-09-09T00:21:57;17.80;63.30
24668;DHT22;12793;48.014;0.232;2022-09-09T00:24:29;17.80;63.50
24668;DHT22;12793;48.014;0.232;2022-09-09T00:29:51;17.80;63.50
24668;DHT22;12793;48.014;0.232;2022-09-09T00:32:20;17.80;63.70
24668;DHT22;12793;48.014;0.232;2022-09-09T00:35:03;17.80;63.70
24668;DHT22;12793;48.014;0.232;2022-09-09T00:37:32;17.80;63.60
24668;DHT22;12793;48.014;0.232;2022-09-09T00:40:00;17.80;63.70
24668;DHT22;12793;48.014;0.232;2022-09-09T00:42:42;17.80;63.80
24668;DHT22;12793;48.014;0.232;2022-09-09T00:47:46;17.80;64.00
24668;DHT22;12793;48.014;0.232;2022-09-09T00:50:43;17.80;64.20
24668;DHT22;12793;48.014;0.232;2022-09-09T00:53:35;17.80;64.00
24668;DHT22;12793;48.014;0.232;2022-09-09T00:56:16;17.80;64.00
24668;DHT22;12793;48.014;0.232;2022-09-09T00:59:07;17.80;64.30
24668;DHT22;12793;48.014;0.232;2022-09-09T01:01:37;17.80;64.20
24668;DHT22;12793;48.014;0.232;2022-09-09T01:04:09;17.80;64.50
24668;DHT22;12793;48.014;0.232;2022-09-09T01:06:41;17.80;64.70
24668;DHT22;12793;48.014;0.232;2022-09-09T01:09:42;17.80;64.70
24668;DHT22;12793;48.014;0.232;2022-09-09T01:12:38;17.80;64.80
24668;DHT22;12793;48.014;0.232;2022-09-09T01:15:09;17.80;65.00
24668;DHT22;12793;48.014;0.232;2022-09-09T01:17:44;17.70;64.80
24668;DHT22;12793;48.014;0.232;2022-09-09T01:20:27;17.70;65.10
24668;DHT22;12793;48.014;0.232;2022-09-09T01:28:34;17.70;65.10
24668;DHT22;12793;48.014;0.232;2022-09-09T01:31:04;17.70;65.20
24668;DHT22;12793;48.014;0.232;2022-09-09T01:33:31;17.70;65.40
24668;DHT22;12793;48.014;0.232;2022-09-09T01:38:29;17.70;65.40
24668;DHT22;12793;48.014;0.232;2022-09-09T01:40:55;17.70;65.40
24668;DHT22;12793;48.014;0.232;2022-09-09T01:43:22;17.70;65.40
24668;DHT22;12793;48.014;0.232;2022-09-09T01:45:52;17.70;65.50
24668;DHT22;12793;48.014;0.232;2022-09-09T01:48:21;17.70;65.70
24668;DHT22;12793;48.014;0.232;2022-09-09T01:50:48;17.80;65.60
24668;DHT22;12793;48.014;0.232;2022-09-09T01:53:15;17.70;65.60
24668;DHT22;12793;48.014;0.232;2022-09-09T02:01:04;17.70;66.10
24668;DHT22;12793;48.014;0.232;2022-09-09T02:03:32;17.60;66.30
24668;DHT22;12793;48.014;0.232;2022-09-09T02:08:43;17.60;66.60
24668;DHT22;12793;48.014;0.232;2022-09-09T02:11:16;17.60;67.20
24668;DHT22;12793;48.014;0.232;2022-09-09T02:13:43;17.60;66.60
24668;DHT22;12793;48.014;0.232;2022-09-09T02:16:20;17.60;66.50
24668;DHT22;12793;48.014;0.232;2022-09-09T02:19:18;17.60;66.70
24668;DHT22;12793;48.014;0.232;2022-09-09T02:21:49;17.50;67.00
24668;DHT22;12793;48.014;0.232;2022-09-09T02:24:16;17.50;67.20
24668;DHT22;12793;48.014;0.232;2022-09-09T02:26:44;17.50;67.20
24668;DHT22;12793;48.014;0.232;2022-09-09T02:29:16;17.50;67.30
24668;DHT22;12793;48.014;0.232;2022-09-09T02:31:44;17.50;67.50
24668;DHT22;12793;48.014;0.232;2022-09-09T02:34:11;17.50;67.50
24668;DHT22;12793;48.014;0.232;2022-09-09T02:36:40;17.50;67.60
24668;DHT22;12793;48.014;0.232;2022-09-09T02:39:10;17.50;67.80
24668;DHT22;12793;48.014;0.232;2022-09-09T02:41:39;17.50;67.60
24668;DHT22;12793;48.014;0.232;2022-09-09T02:44:12;17.60;67.90
24668;DHT22;12793;48.014;0.232;2022-09-09T02:58:06;17.50;68.00
24668;DHT22;12793;48.014;0.232;2022-09-09T03:00:33;17.60;68.20
24668;DHT22;12793;48.014;0.232;2022-09-09T03:03:03;17.50;68.30
24668;DHT22;12793;48.014;0.232;2022-09-09T03:05:29;17.60;68.40
24668;DHT22;12793;48.014;0.232;2022-09-09T03:07:54;17.60;68.20
24668;DHT22;12793;48.014;0.232;2022-09-09T03:10:20;17.60;68.20
24668;DHT22;12793;48.014;0.232;2022-09-09T03:12:46;17.60;68.10
24668;DHT22;12793;48.014;0.232;2022-09-09T03:15:11;17.60;68.30
24668;DHT22;12793;48.014;0.232;2022-09-09T03:17:37;17.60;68.80
24668;DHT22;12793;48.014;0.232;2022-09-09T03:20:06;17.50;68.10
24668;DHT22;12793;48.014;0.232;2022-09-09T03:22:32;17.60;68.20
24668;DHT22;12793;48.014;0.232;2022-09-09T03:24:58;17.60;68.20
24668;DHT22;12793;48.014;0.232;2022-09-09T03:27:24;17.60;68.10
24668;DHT22;12793;48.014;0.232;2022-09-09T03:29:50;17.60;68.10
24668;DHT22;12793;48.014;0.232;2022-09-09T03:32:17;17.60;68.10
24668;DHT22;12793;48.014;0.232;2022-09-09T03:34:43;17.60;68.10
24668;DHT22;12793;48.014;0.232;2022-09-09T03:37:10;17.60;68.10
24668;DHT22;12793;48.014;0.232;2022-09-09T03:39:35;17.60;68.00
24668;DHT22;12793;48.014;0.232;2022-09-09T03:42:01;17.60;68.00
24668;DHT22;12793;48.014;0.232;2022-09-09T03:44:30;17.60;68.00
24668;DHT22;12793;48.014;0.232;2022-09-09T03:46:57;17.60;67.90
24668;DHT22;12793;48.014;0.232;2022-09-09T03:49:27;17.60;67.90
24668;DHT22;12793;48.014;0.232;2022-09-09T03:51:57;17.70;67.80
24668;DHT22;12793;48.014;0.232;2022-09-09T03:54:24;17.70;67.80
24668;DHT22;12793;48.014;0.232;2022-09-09T03:56:50;17.70;67.70
24668;DHT22;12793;48.014;0.232;2022-09-09T03:59:15;17.70;67.90
24668;DHT22;12793;48.014;0.232;2022-09-09T04:01:41;17.70;67.90
24668;DHT22;12793;48.014;0.232;2022-09-09T04:04:07;17.70;67.90
24668;DHT22;12793;48.014;0.232;2022-09-09T04:06:34;17.70;67.80
24668;DHT22;12793;48.014;0.232;2022-09-09T04:09:00;17.70;67.70
24668;DHT22;12793;48.014;0.232;2022-09-09T04:11:29;17.70;67.70
24668;DHT22;12793;48.014;0.232;2022-09-09T04:13:54;17.70;67.60
24668;DHT22;12793;48.014;0.232;2022-09-09T04:16:20;17.70;67.40
24668;DHT22;12793;48.014;0.232;2022-09-09T04:18:46;17.70;67.60
24668;DHT22;12793;48.014;0.232;2022-09-09T04:21:12;17.60;67.50
24668;DHT22;12793;48.014;0.232;2022-09-09T04:23:38;17.60;67.40
24668;DHT22;12793;48.014;0.232;2022-09-09T04:26:05;17.60;67.40
24668;DHT22;12793;48.014;0.232;2022-09-09T04:28:33;17.60;67.40
24668;DHT22;12793;48.014;0.232;2022-09-09T04:31:10;17.60;67.70
24668;DHT22;12793;48.014;0.232;2022-09-09T04:33:39;17.60;67.70
24668;DHT22;12793;48.014;0.232;2022-09-09T04:36:05;17.60;67.80
24668;DHT22;12793;48.014;0.232;2022-09-09T04:38:32;17.60;67.80
24668;DHT22;12793;48.014;0.232;2022-09-09T04:40:57;17.50;67.70
24668;DHT22;12793;48.014;0.232;2022-09-09T04:43:24;17.50;67.60
24668;DHT22;12793;48.014;0.232;2022-09-09T04:45:51;17.50;67.70
24668;DHT22;12793;48.014;0.232;2022-09-09T04:48:18;17.50;67.70
24668;DHT22;12793;48.014;0.232;2022-09-09T04:50:44;17.40;67.70
24668;DHT22;12793;48.014;0.232;2022-09-09T04:53:09;17.40;68.00
24668;DHT22;12793;48.014;0.232;2022-09-09T04:55:35;17.40;68.00
24668;DHT22;12793;48.014;0.232;2022-09-09T04:58:05;17.40;68.00
24668;DHT22;12793;48.014;0.232;2022-09-09T05:00:33;17.40;68.20
24668;DHT22;12793;48.014;0.232;2022-09-09T05:03:03;17.30;68.30
24668;DHT22;12793;48.014;0.232;2022-09-09T05:05:29;17.30;68.30
24668;DHT22;12793;48.014;0.232;2022-09-09T05:08:01;17.30;68.50
24668;DHT22;12793;48.014;0.232;2022-09-09T05:10:27;17.30;68.70
24668;DHT22;12793;48.014;0.232;2022-09-09T05:12:53;17.30;68.60
24668;DHT22;12793;48.014;0.232;2022-09-09T05:15:19;17.20;68.90
24668;DHT22;12793;48.014;0.232;2022-09-09T05:17:46;17.20;69.10
24668;DHT22;12793;48.014;0.232;2022-09-09T05:20:12;17.20;69.10
24668;DHT22;12793;48.014;0.232;2022-09-09T05:22:38;17.20;69.20
24668;DHT22;12793;48.014;0.232;2022-09-09T05:25:04;17.20;69.30
24668;DHT22;12793;48.014;0.232;2022-09-09T05:27:29;17.20;69.50
24668;DHT22;12793;48.014;0.232;2022-09-09T05:29:57;17.20;69.40
24668;DHT22;12793;48.014;0.232;2022-09-09T05:32:23;17.20;69.50
24668;DHT22;12793;48.014;0.232;2022-09-09T05:34:49;17.20;69.60
24668;DHT22;12793;48.014;0.232;2022-09-09T05:37:15;17.20;69.60
24668;DHT22;12793;48.014;0.232;2022-09-09T05:39:42;17.10;69.80
24668;DHT22;12793;48.014;0.232;2022-09-09T05:42:07;17.20;69.90
24668;DHT22;12793;48.014;0.232;2022-09-09T05:44:33;17.20;69.80
24668;DHT22;12793;48.014;0.232;2022-09-09T05:46:59;17.20;69.80
24668;DHT22;12793;48.014;0.232;2022-09-09T05:49:24;17.20;69.90
24668;DHT22;12793;48.014;0.232;2022-09-09T05:51:50;17.20;69.80
24668;DHT22;12793;48.014;0.232;2022-09-09T05:54:16;17.20;69.80
24668;DHT22;12793;48.014;0.232;2022-09-09T05:56:42;17.20;69.70
24668;DHT22;12793;48.014;0.232;2022-09-09T05:59:08;17.20;69.70
24668;DHT22;12793;48.014;0.232;2022-09-09T06:01:36;17.20;69.90
24668;DHT22;12793;48.014;0.232;2022-09-09T06:04:05;17.30;69.80
24668;DHT22;12793;48.014;0.232;2022-09-09T06:06:34;17.30;69.80
24668;DHT22;12793;48.014;0.232;2022-09-09T06:09:03;17.30;69.80
24668;DHT22;12793;48.014;0.232;2022-09-09T06:11:32;17.30;69.70
24668;DHT22;12793;48.014;0.232;2022-09-09T06:13:58;17.30;69.60
24668;DHT22;12793;48.014;0.232;2022-09-09T06:16:26;17.30;69.60
24668;DHT22;12793;48.014;0.232;2022-09-09T06:18:53;17.30;69.50
24668;DHT22;12793;48.014;0.232;2022-09-09T06:21:31;17.40;69.70
24668;DHT22;12793;48.014;0.232;2022-09-09T06:24:02;17.40;69.60
24668;DHT22;12793;48.014;0.232;2022-09-09T06:26:39;17.50;69.50
24668;DHT22;12793;48.014;0.232;2022-09-09T06:29:06;17.50;69.90
24668;DHT22;12793;48.014;0.232;2022-09-09T06:31:34;17.50;69.20
24668;DHT22;12793;48.014;0.232;2022-09-09T06:34:04;17.50;69.00
24668;DHT22;12793;48.014;0.232;2022-09-09T06:36:33;17.60;69.00
24668;DHT22;12793;48.014;0.232;2022-09-09T06:38:59;17.60;69.00
24668;DHT22;12793;48.014;0.232;2022-09-09T06:41:27;17.60;68.90
24668;DHT22;12793;48.014;0.232;2022-09-09T06:43:53;17.70;68.90
24668;DHT22;12793;48.014;0.232;2022-09-09T06:46:23;17.70;68.90
24668;DHT22;12793;48.014;0.232;2022-09-09T06:48:52;17.80;68.80
24668;DHT22;12793;48.014;0.232;2022-09-09T06:51:21;17.90;68.60
24668;DHT22;12793;48.014;0.232;2022-09-09T06:53:50;17.90;68.30
24668;DHT22;12793;48.014;0.232;2022-09-09T06:58:43;18.10;68.00
24668;DHT22;12793;48.014;0.232;2022-09-09T07:01:11;18.00;67.70
24668;DHT22;12793;48.014;0.232;2022-09-09T07:03:39;18.10;67.60
24668;DHT22;12793;48.014;0.232;2022-09-09T07:06:05;18.10;67.60
24668;DHT22;12793;48.014;0.232;2022-09-09T07:08:33;18.20;67.50
24668;DHT22;12793;48.014;0.232;2022-09-09T07:11:04;18.20;67.20
24668;DHT22;12793;48.014;0.232;2022-09-09T07:13:33;18.30;67.00
24668;DHT22;12793;48.014;0.232;2022-09-09T07:16:06;18.30;66.90
24668;DHT22;12793;48.014;0.232;2022-09-09T07:18:33;18.30;66.80
24668;DHT22;12793;48.014;0.232;2022-09-09T07:21:01;18.30;66.50
24668;DHT22;12793;48.014;0.232;2022-09-09T07:23:27;18.40;66.20
24668;DHT22;12793;48.014;0.232;2022-09-09T07:25:53;18.40;66.00
24668;DHT22;12793;48.014;0.232;2022-09-09T07:28:20;18.40;66.10
24668;DHT22;12793;48.014;0.232;2022-09-09T07:30:56;18.40;65.90
24668;DHT22;12793;48.014;0.232;2022-09-09T07:33:23;18.40;65.70
24668;DHT22;12793;48.014;0.232;2022-09-09T07:35:50;18.40;65.70
24668;DHT22;12793;48.014;0.232;2022-09-09T07:38:16;18.40;65.80
24668;DHT22;12793;48.014;0.232;2022-09-09T07:40:42;18.30;65.60
24668;DHT22;12793;48.014;0.232;2022-09-09T07:43:09;18.30;65.50
24668;DHT22;12793;48.014;0.232;2022-09-09T07:45:34;18.40;65.60
24668;DHT22;12793;48.014;0.232;2022-09-09T07:48:02;18.40;65.60
24668;DHT22;12793;48.014;0.232;2022-09-09T07:50:28;18.50;65.70
24668;DHT22;12793;48.014;0.232;2022-09-09T07:52:54;18.50;65.40
24668;DHT22;12793;48.014;0.232;2022-09-09T07:55:20;18.50;65.10
24668;DHT22;12793;48.014;0.232;2022-09-09T07:57:46;18.60;65.30
24668;DHT22;12793;48.014;0.232;2022-09-09T08:00:12;18.60;64.90
24668;DHT22;12793;48.014;0.232;2022-09-09T08:02:40;18.70;64.80
24668;DHT22;12793;48.014;0.232;2022-09-09T08:05:06;18.70;64.60
24668;DHT22;12793;48.014;0.232;2022-09-09T08:07:32;18.80;64.40
24668;DHT22;12793;48.014;0.232;2022-09-09T08:09:58;18.80;64.20
24668;DHT22;12793;48.014;0.232;2022-09-09T08:12:24;18.90;64.30
24668;DHT22;12793;48.014;0.232;2022-09-09T08:14:49;19.00;63.90
24668;DHT22;12793;48.014;0.232;2022-09-09T08:17:17;19.10;63.50
24668;DHT22;12793;48.014;0.232;2022-09-09T08:19:42;19.10;63.30
24668;DHT22;12793;48.014;0.232;2022-09-09T08:22:10;19.20;63.10
24668;DHT22;12793;48.014;0.232;2022-09-09T08:24:35;19.30;63.10
24668;DHT22;12793;48.014;0.232;2022-09-09T08:27:02;19.40;63.00
24668;DHT22;12793;48.014;0.232;2022-09-09T08:29:27;19.50;62.40
24668;DHT22;12793;48.014;0.232;2022-09-09T08:31:57;19.60;62.10
24668;DHT22;12793;48.014;0.232;2022-09-09T08:34:24;19.70;61.70
24668;DHT22;12793;48.014;0.232;2022-09-09T08:36:53;19.80;61.60
24668;DHT22;12793;48.014;0.232;2022-09-09T08:39:20;19.80;61.30
24668;DHT22;12793;48.014;0.232;2022-09-09T08:45:34;20.00;60.40
24668;DHT22;12793;48.014;0.232;2022-09-09T08:47:46;20.00;60.10
24668;DHT22;12793;48.014;0.232;2022-09-09T08:58:25;20.20;59.30
24668;DHT22;12793;48.014;0.232;2022-09-09T09:12:11;20.30;58.60
24668;DHT22;12793;48.014;0.232;2022-09-09T09:14:40;20.30;58.80
24668;DHT22;12793;48.014;0.232;2022-09-09T09:17:14;20.40;58.60
24668;DHT22;12793;48.014;0.232;2022-09-09T09:19:41;20.50;58.20
24668;DHT22;12793;48.014;0.232;2022-09-09T09:22:35;20.50;57.70
24668;DHT22;12793;48.014;0.232;2022-09-09T09:25:26;20.60;57.90
24668;DHT22;12793;48.014;0.232;2022-09-09T09:28:16;20.70;57.60
24668;DHT22;12793;48.014;0.232;2022-09-09T09:35:49;21.00;56.80
24668;DHT22;12793;48.014;0.232;2022-09-09T09:38:26;21.10;56.70
24668;DHT22;12793;48.014;0.232;2022-09-09T09:40:58;21.20;56.40
24668;DHT22;12793;48.014;0.232;2022-09-09T09:45:52;21.10;55.80
24668;DHT22;12793;48.014;0.232;2022-09-09T09:48:17;21.10;55.70
24668;DHT22;12793;48.014;0.232;2022-09-09T09:51:10;21.00;55.50
24668;DHT22;12793;48.014;0.232;2022-09-09T09:53:37;21.00;55.40
24668;DHT22;12793;48.014;0.232;2022-09-09T09:56:09;21.00;55.60
24668;DHT22;12793;48.014;0.232;2022-09-09T10:01:31;20.90;55.70
24668;DHT22;12793;48.014;0.232;2022-09-09T10:04:21;20.90;55.90
24668;DHT22;12793;48.014;0.232;2022-09-09T10:06:49;20.90;55.90
24668;DHT22;12793;48.014;0.232;2022-09-09T10:09:32;21.00;55.80
24668;DHT22;12793;48.014;0.232;2022-09-09T10:21:20;21.50;54.60
24668;DHT22;12793;48.014;0.232;2022-09-09T10:31:49;21.40;55.10
24668;DHT22;12793;48.014;0.232;2022-09-09T10:34:34;21.40;55.30
24668;DHT22;12793;48.014;0.232;2022-09-09T10:37:22;21.50;55.30
24668;DHT22;12793;48.014;0.232;2022-09-09T10:40:02;21.80;55.00
24668;DHT22;12793;48.014;0.232;2022-09-09T10:42:31;21.90;54.60
24668;DHT22;12793;48.014;0.232;2022-09-09T10:50:43;22.30;53.40
24668;DHT22;12793;48.014;0.232;2022-09-09T10:55:51;22.10;53.30
24668;DHT22;12793;48.014;0.232;2022-09-09T11:01:22;22.80;53.40
24668;DHT22;12793;48.014;0.232;2022-09-09T11:03:55;23.30;51.90
24668;DHT22;12793;48.014;0.232;2022-09-09T11:06:28;23.80;51.30
24668;DHT22;12793;48.014;0.232;2022-09-09T11:08:56;24.50;50.60
24668;DHT22;12793;48.014;0.232;2022-09-09T11:11:32;25.20;49.80
24668;DHT22;12793;48.014;0.232;2022-09-09T11:14:01;25.50;48.40
24668;DHT22;12793;48.014;0.232;2022-09-09T11:19:30;25.10;47.70
24668;DHT22;12793;48.014;0.232;2022-09-09T11:22:18;24.70;48.00
24668;DHT22;12793;48.014;0.232;2022-09-09T11:38:15;23.20;49.90
24668;DHT22;12793;48.014;0.232;2022-09-09T11:40:41;23.10;50.60
24668;DHT22;12793;48.014;0.232;2022-09-09T11:43:20;23.10;50.80
24668;DHT22;12793;48.014;0.232;2022-09-09T11:45:58;23.20;50.90
24668;DHT22;12793;48.014;0.232;2022-09-09T11:48:38;23.30;50.50
24668;DHT22;12793;48.014;0.232;2022-09-09T11:51:10;23.40;50.20
24668;DHT22;12793;48.014;0.232;2022-09-09T11:53:48;23.40;50.00
24668;DHT22;12793;48.014;0.232;2022-09-09T11:56:30;23.40;50.20
24668;DHT22;12793;48.014;0.232;2022-09-09T11:59:06;23.40;50.80
24668;DHT22;12793;48.014;0.232;2022-09-09T12:01:43;23.30;51.20
24668;DHT22;12793;48.014;0.232;2022-09-09T12:04:34;23.20;51.70
24668;DHT22;12793;48.014;0.232;2022-09-09T12:07:04;23.10;52.20
24668;DHT22;12793;48.014;0.232;2022-09-09T12:09:52;23.10;52.50
24668;DHT22;12793;48.014;0.232;2022-09-09T12:15:20;23.20;52.20
24668;DHT22;12793;48.014;0.232;2022-09-09T12:17:48;23.20;52.40
24668;DHT22;12793;48.014;0.232;2022-09-09T12:33:44;22.60;52.10
24668;DHT22;12793;48.014;0.232;2022-09-09T12:36:19;22.60;52.70
24668;DHT22;12793;48.014;0.232;2022-09-09T12:38:47;22.60;52.90
24668;DHT22;12793;48.014;0.232;2022-09-09T12:41:23;22.80;53.40
24668;DHT22;12793;48.014;0.232;2022-09-09T12:43:50;23.50;53.10
24668;DHT22;12793;48.014;0.232;2022-09-09T12:46:26;24.00;52.30
24668;DHT22;12793;48.014;0.232;2022-09-09T12:48:55;24.40;51.10
24668;DHT22;12793;48.014;0.232;2022-09-09T12:51:28;24.60;51.20
24668;DHT22;12793;48.014;0.232;2022-09-09T12:53:55;25.00;50.70
24668;DHT22;12793;48.014;0.232;2022-09-09T12:56:23;25.80;50.10
24668;DHT22;12793;48.014;0.232;2022-09-09T12:58:52;26.60;49.00
24668;DHT22;12793;48.014;0.232;2022-09-09T13:03:52;27.60;46.90
24668;DHT22;12793;48.014;0.232;2022-09-09T13:06:38;27.70;46.20
24668;DHT22;12793;48.014;0.232;2022-09-09T13:09:04;27.60;45.40
24668;DHT22;12793;48.014;0.232;2022-09-09T13:11:37;27.60;44.10
24668;DHT22;12793;48.014;0.232;2022-09-09T13:14:05;27.60;43.10
24668;DHT22;12793;48.014;0.232;2022-09-09T13:16:34;27.70;42.50
24668;DHT22;12793;48.014;0.232;2022-09-09T13:19:14;27.60;42.70
24668;DHT22;12793;48.014;0.232;2022-09-09T13:21:41;27.50;42.80
24668;DHT22;12793;48.014;0.232;2022-09-09T13:24:40;27.30;42.50
24668;DHT22;12793;48.014;0.232;2022-09-09T13:27:28;26.90;42.60
24668;DHT22;12793;48.014;0.232;2022-09-09T13:29:55;26.60;42.80
24668;DHT22;12793;48.014;0.232;2022-09-09T13:32:22;26.40;43.10
24668;DHT22;12793;48.014;0.232;2022-09-09T13:34:59;26.10;43.50
24668;DHT22;12793;48.014;0.232;2022-09-09T13:37:33;26.00;44.10
24668;DHT22;12793;48.014;0.232;2022-09-09T13:40:00;26.00;44.20
24668;DHT22;12793;48.014;0.232;2022-09-09T13:42:29;26.00;44.00
24668;DHT22;12793;48.014;0.232;2022-09-09T13:44:58;25.90;43.60
24668;DHT22;12793;48.014;0.232;2022-09-09T13:47:36;26.00;43.50
24668;DHT22;12793;48.014;0.232;2022-09-09T13:52:47;26.40;43.80
24668;DHT22;12793;48.014;0.232;2022-09-09T13:55:14;27.00;43.50
24668;DHT22;12793;48.014;0.232;2022-09-09T13:57:50;27.60;42.30
24668;DHT22;12793;48.014;0.232;2022-09-09T14:00:16;28.20;41.70
24668;DHT22;12793;48.014;0.232;2022-09-09T14:02:43;28.50;40.90
24668;DHT22;12793;48.014;0.232;2022-09-09T14:05:10;28.90;40.50
24668;DHT22;12793;48.014;0.232;2022-09-09T14:07:37;29.20;39.70
24668;DHT22;12793;48.014;0.232;2022-09-09T14:10:04;29.50;39.10
24668;DHT22;12793;48.014;0.232;2022-09-09T14:12:31;29.50;38.70
24668;DHT22;12793;48.014;0.232;2022-09-09T14:14:57;29.30;39.30
24668;DHT22;12793;48.014;0.232;2022-09-09T14:17:22;29.20;39.60
24668;DHT22;12793;48.014;0.232;2022-09-09T14:19:48;29.10;39.30
24668;DHT22;12793;48.014;0.232;2022-09-09T14:22:14;28.90;39.30
24668;DHT22;12793;48.014;0.232;2022-09-09T14:24:40;28.80;39.40
24668;DHT22;12793;48.014;0.232;2022-09-09T14:27:06;28.60;39.40
24668;DHT22;12793;48.014;0.232;2022-09-09T14:29:31;28.30;40.00
24668;DHT22;12793;48.014;0.232;2022-09-09T14:31:58;28.30;40.20
24668;DHT22;12793;48.014;0.232;2022-09-09T14:34:26;28.20;39.90
24668;DHT22;12793;48.014;0.232;2022-09-09T14:36:52;27.90;40.20
24668;DHT22;12793;48.014;0.232;2022-09-09T14:39:17;27.60;40.80
24668;DHT22;12793;48.014;0.232;2022-09-09T14:41:43;27.30;41.10
24668;DHT22;12793;48.014;0.232;2022-09-09T14:44:09;26.90;41.40
24668;DHT22;12793;48.014;0.232;2022-09-09T14:46:36;26.50;41.70
24668;DHT22;12793;48.014;0.232;2022-09-09T14:49:02;26.10;42.10
24668;DHT22;12793;48.014;0.232;2022-09-09T14:51:28;25.70;42.80
24668;DHT22;12793;48.014;0.232;2022-09-09T14:53:56;25.40;43.70
24668;DHT22;12793;48.014;0.232;2022-09-09T14:56:27;25.20;44.70
24668;DHT22;12793;48.014;0.232;2022-09-09T14:58:55;25.00;44.50
24668;DHT22;12793;48.014;0.232;2022-09-09T15:01:21;25.00;44.70
24668;DHT22;12793;48.014;0.232;2022-09-09T15:03:59;25.20;44.60
24668;DHT22;12793;48.014;0.232;2022-09-09T15:06:27;25.60;44.50
24668;DHT22;12793;48.014;0.232;2022-09-09T15:08:53;25.90;43.90
24668;DHT22;12793;48.014;0.232;2022-09-09T15:11:20;26.00;43.50
24668;DHT22;12793;48.014;0.232;2022-09-09T15:13:46;26.00;43.60
24668;DHT22;12793;48.014;0.232;2022-09-09T15:16:17;26.30;44.20
24668;DHT22;12793;48.014;0.232;2022-09-09T15:18:44;26.70;43.60
24668;DHT22;12793;48.014;0.232;2022-09-09T15:21:15;27.20;43.10
24668;DHT22;12793;48.014;0.232;2022-09-09T15:23:42;27.70;42.20
24668;DHT22;12793;48.014;0.232;2022-09-09T15:26:09;28.00;41.40
24668;DHT22;12793;48.014;0.232;2022-09-09T15:28:36;28.00;41.20
24668;DHT22;12793;48.014;0.232;2022-09-09T15:31:13;27.80;41.30
24668;DHT22;12793;48.014;0.232;2022-09-09T15:33:52;27.60;41.60
24668;DHT22;12793;48.014;0.232;2022-09-09T15:36:22;27.40;42.10
24668;DHT22;12793;48.014;0.232;2022-09-09T15:38:49;27.40;42.30
24668;DHT22;12793;48.014;0.232;2022-09-09T15:41:16;27.40;42.00
24668;DHT22;12793;48.014;0.232;2022-09-09T15:43:47;27.30;41.80
24668;DHT22;12793;48.014;0.232;2022-09-09T15:48:43;26.60;42.40
24668;DHT22;12793;48.014;0.232;2022-09-09T15:51:12;26.20;42.90
24668;DHT22;12793;48.014;0.232;2022-09-09T15:53:39;25.80;43.50
24668;DHT22;12793;48.014;0.232;2022-09-09T15:56:06;25.40;44.10
24668;DHT22;12793;48.014;0.232;2022-09-09T15:58:33;25.10;44.70
24668;DHT22;12793;48.014;0.232;2022-09-09T16:01:06;24.80;45.30
24668;DHT22;12793;48.014;0.232;2022-09-09T16:03:36;24.50;45.90
24668;DHT22;12793;48.014;0.232;2022-09-09T16:06:02;24.20;46.50
24668;DHT22;12793;48.014;0.232;2022-09-09T16:08:35;24.00;47.20
24668;DHT22;12793;48.014;0.232;2022-09-09T16:11:15;23.70;47.60
24668;DHT22;12793;48.014;0.232;2022-09-09T16:13:43;23.50;48.40
24668;DHT22;12793;48.014;0.232;2022-09-09T16:16:13;23.40;49.00
24668;DHT22;12793;48.014;0.232;2022-09-09T16:18:43;23.20;49.30
24668;DHT22;12793;48.014;0.232;2022-09-09T16:21:15;23.20;49.70
24668;DHT22;12793;48.014;0.232;2022-09-09T16:23:41;23.00;50.30
24668;DHT22;12793;48.014;0.232;2022-09-09T16:26:10;22.80;51.20
24668;DHT22;12793;48.014;0.232;2022-09-09T16:28:37;22.70;52.60
24668;DHT22;12793;48.014;0.232;2022-09-09T16:31:17;22.50;52.90
24668;DHT22;12793;48.014;0.232;2022-09-09T16:33:43;22.30;53.60
24668;DHT22;12793;48.014;0.232;2022-09-09T16:36:11;22.20;54.10
24668;DHT22;12793;48.014;0.232;2022-09-09T16:38:38;22.00;54.30
24668;DHT22;12793;48.014;0.232;2022-09-09T16:41:05;22.00;54.80
24668;DHT22;12793;48.014;0.232;2022-09-09T16:43:35;21.90;55.00
24668;DHT22;12793;48.014;0.232;2022-09-09T16:46:02;21.90;55.20
24668;DHT22;12793;48.014;0.232;2022-09-09T16:48:34;21.90;55.60
24668;DHT22;12793;48.014;0.232;2022-09-09T16:51:01;21.90;55.60
24668;DHT22;12793;48.014;0.232;2022-09-09T16:53:27;21.70;55.60
24668;DHT22;12793;48.014;0.232;2022-09-09T16:55:52;21.60;55.70
24668;DHT22;12793;48.014;0.232;2022-09-09T16:58:18;21.50;56.10
24668;DHT22;12793;48.014;0.232;2022-09-09T17:00:44;21.40;56.20
24668;DHT22;12793;48.014;0.232;2022-09-09T17:03:14;21.30;56.30
24668;DHT22;12793;48.014;0.232;2022-09-09T17:05:41;21.20;56.50
24668;DHT22;12793;48.014;0.232;2022-09-09T17:08:08;21.10;56.70
24668;DHT22;12793;48.014;0.232;2022-09-09T17:10:39;21.00;56.90
24668;DHT22;12793;48.014;0.232;2022-09-09T17:13:05;21.00;57.20
24668;DHT22;12793;48.014;0.232;2022-09-09T17:15:30;21.00;57.30
24668;DHT22;12793;48.014;0.232;2022-09-09T17:17:56;21.10;57.40
24668;DHT22;12793;48.014;0.232;2022-09-09T17:20:22;21.30;57.30
24668;DHT22;12793;48.014;0.232;2022-09-09T17:22:47;21.50;57.10
24668;DHT22;12793;48.014;0.232;2022-09-09T17:25:14;21.70;56.90
24668;DHT22;12793;48.014;0.232;2022-09-09T17:27:40;21.90;56.50
24668;DHT22;12793;48.014;0.232;2022-09-09T17:30:06;21.90;56.20
24668;DHT22;12793;48.014;0.232;2022-09-09T17:32:32;21.80;55.90
24668;DHT22;12793;48.014;0.232;2022-09-09T17:34:57;21.70;56.10
24668;DHT22;12793;48.014;0.232;2022-09-09T17:37:23;21.70;56.70
24668;DHT22;12793;48.014;0.232;2022-09-09T17:39:49;21.60;56.30
24668;DHT22;12793;48.014;0.232;2022-09-09T17:42:15;21.50;56.90
24668;DHT22;12793;48.014;0.232;2022-09-09T17:44:40;21.40;56.50
24668;DHT22;12793;48.014;0.232;2022-09-09T17:47:07;21.30;56.70
24668;DHT22;12793;48.014;0.232;2022-09-09T17:49:32;21.20;56.90
24668;DHT22;12793;48.014;0.232;2022-09-09T17:51:59;21.10;57.20
24668;DHT22;12793;48.014;0.232;2022-09-09T17:54:24;21.00;57.10
24668;DHT22;12793;48.014;0.232;2022-09-09T17:56:50;20.90;57.20
24668;DHT22;12793;48.014;0.232;2022-09-09T17:59:18;20.80;57.40
24668;DHT22;12793;48.014;0.232;2022-09-09T18:01:46;20.80;57.80
24668;DHT22;12793;48.014;0.232;2022-09-09T18:04:13;20.70;57.60
24668;DHT22;12793;48.014;0.232;2022-09-09T18:06:46;20.60;57.70
24668;DHT22;12793;48.014;0.232;2022-09-09T18:09:17;20.60;57.80
24668;DHT22;12793;48.014;0.232;2022-09-09T18:11:46;20.60;57.90
24668;DHT22;12793;48.014;0.232;2022-09-09T18:14:25;20.50;57.90